Time,TemperatureF,DewpointF,PressureIn,WindDirection,WindDirectionDegrees,WindSpeedMPH,WindSpeedGustMPH,Humidity,HourlyPrecipIn,Conditions,Clouds,dailyrainin,SolarRadiationWatts/m^2,SoftwareType,DateUTC
2013-01-16 00:12:00,12.0,3.0,-100.00,NE,53,4.0,13.0,67,0.00,,,0.04,0.000000,,2013-01-16 07:12:00,
2013-01-16 00:22:00,12.0,3.0,-100.00,NE,53,4.0,13.0,67,0.00,,,0.04,0.000000,,2013-01-16 07:22:00,
2013-01-16 00:33:00,12.0,3.0,-100.00,NE,53,4.0,13.0,67,0.00,,,0.04,0.000000,,2013-01-16 07:33:00,
2013-01-16 00:42:00,12.0,3.0,-100.00,NE,53,4.0,13.0,67,0.00,,,0.04,0.000000,,2013-01-16 07:42:00,
2013-01-16 00:52:00,12.0,3.0,-100.00,NE,53,4.0,13.0,67,0.00,,,0.04,0.000000,,2013-01-16 07:52:00,
2013-01-16 01:12:00,13.0,4.0,-100.00,NE,54,4.0,12.0,67,0.00,,,0.04,0.000000,,2013-01-16 08:12:00,
2013-01-16 01:22:00,13.0,4.0,-100.00,NE,54,4.0,12.0,67,0.00,,,0.04,0.000000,,2013-01-16 08:22:00,
2013-01-16 01:32:00,13.0,4.0,-100.00,NE,54,4.0,12.0,67,0.00,,,0.04,0.000000,,2013-01-16 08:32:00,
2013-01-16 01:42:00,13.0,4.0,-100.00,NE,54,4.0,12.0,67,0.00,,,0.04,0.000000,,2013-01-16 08:42:00,
2013-01-16 01:52:00,13.0,4.0,-100.00,NE,54,4.0,12.0,67,0.00,,,0.04,0.000000,,2013-01-16 08:52:00,
2013-01-16 02:22:00,13.0,4.0,-100.00,NE,53,4.0,13.0,67,0.00,,,0.04,0.000000,,2013-01-16 09:22:00,
2013-01-16 02:32:00,13.0,4.0,-100.00,NE,53,4.0,13.0,67,0.00,,,0.04,0.000000,,2013-01-16 09:32:00,
2013-01-16 02:42:00,13.0,4.0,-100.00,NE,53,4.0,13.0,67,0.00,,,0.04,0.000000,,2013-01-16 09:42:00,
2013-01-16 02:52:00,13.0,4.0,-100.00,NE,53,4.0,13.0,67,0.00,,,0.04,0.000000,,2013-01-16 09:52:00,
2013-01-16 03:12:00,14.0,5.0,-100.00,ESE,118,4.0,10.0,67,0.00,,,0.04,0.000000,,2013-01-16 10:12:00,
2013-01-16 03:22:00,14.0,5.0,-100.00,ESE,118,4.0,10.0,67,0.00,,,0.04,0.000000,,2013-01-16 10:22:00,
2013-01-16 03:32:00,14.0,5.0,-100.00,ESE,118,4.0,10.0,67,0.00,,,0.04,0.000000,,2013-01-16 10:32:00,
2013-01-16 03:42:00,14.0,5.0,-100.00,ESE,118,4.0,10.0,67,0.00,,,0.04,0.000000,,2013-01-16 10:42:00,
2013-01-16 03:52:00,14.0,5.0,-100.00,ESE,118,4.0,10.0,67,0.00,,,0.04,0.000000,,2013-01-16 10:52:00,
2013-01-16 04:22:00,13.0,5.0,-100.00,NE,40,2.0,13.0,70,0.00,,,0.04,0.000000,,2013-01-16 11:22:00,
2013-01-16 04:33:00,13.0,5.0,-100.00,NE,40,2.0,13.0,70,0.00,,,0.04,0.000000,,2013-01-16 11:33:00,
2013-01-16 04:42:00,13.0,5.0,-100.00,NE,40,2.0,13.0,70,0.00,,,0.04,0.000000,,2013-01-16 11:42:00,
2013-01-16 04:52:00,13.0,5.0,-100.00,NE,40,2.0,13.0,70,0.00,,,0.04,0.000000,,2013-01-16 11:52:00,
2013-01-16 05:13:00,14.0,6.0,-100.00,ENE,62,2.0,9.0,69,0.00,,,0.04,0.000000,,2013-01-16 12:13:00,
2013-01-16 05:22:00,14.0,6.0,-100.00,ENE,62,2.0,9.0,69,0.00,,,0.04,0.000000,,2013-01-16 12:22:00,
2013-01-16 05:33:00,14.0,6.0,-100.00,ENE,62,2.0,9.0,69,0.00,,,0.04,0.000000,,2013-01-16 12:33:00,
2013-01-16 05:43:00,14.0,6.0,-100.00,ENE,62,2.0,9.0,69,0.00,,,0.04,0.000000,,2013-01-16 12:43:00,
2013-01-16 05:53:00,14.0,6.0,-100.00,ENE,62,2.0,9.0,69,0.00,,,0.04,0.000000,,2013-01-16 12:53:00,
2013-01-16 06:12:00,15.0,8.0,-100.00,East,89,4.0,10.0,72,0.00,,,0.04,0.000000,,2013-01-16 13:12:00,
2013-01-16 06:22:00,15.0,8.0,-100.00,East,89,4.0,10.0,72,0.00,,,0.04,0.000000,,2013-01-16 13:22:00,
2013-01-16 06:33:00,15.0,8.0,-100.00,East,89,4.0,10.0,72,0.00,,,0.04,0.000000,,2013-01-16 13:33:00,
2013-01-16 06:43:00,15.0,8.0,-100.00,East,89,4.0,10.0,72,0.00,,,0.04,0.000000,,2013-01-16 13:43:00,
2013-01-16 06:52:00,15.0,8.0,-100.00,East,89,4.0,10.0,72,0.00,,,0.04,0.000000,,2013-01-16 13:52:00,
2013-01-16 07:12:00,16.0,8.0,-100.00,East,82,2.0,9.0,71,0.00,,,0.04,0.000000,,2013-01-16 14:12:00,
2013-01-16 07:23:00,16.0,8.0,-100.00,East,82,2.0,9.0,71,0.00,,,0.04,0.000000,,2013-01-16 14:23:00,
2013-01-16 07:33:00,16.0,8.0,-100.00,East,82,2.0,9.0,71,0.00,,,0.04,0.000000,,2013-01-16 14:33:00,
2013-01-16 07:42:00,16.0,8.0,-100.00,East,82,2.0,9.0,71,0.00,,,0.04,0.000000,,2013-01-16 14:42:00,
2013-01-16 07:53:00,16.0,8.0,-100.00,East,82,2.0,9.0,71,0.00,,,0.04,0.000000,,2013-01-16 14:53:00,
2013-01-16 08:12:00,20.0,11.0,-100.00,ESE,112,2.0,11.0,68,0.00,,,0.04,12.000000,,2013-01-16 15:12:00,
2013-01-16 08:23:00,20.0,11.0,-100.00,ESE,112,2.0,11.0,68,0.00,,,0.04,12.000000,,2013-01-16 15:23:00,
2013-01-16 08:33:00,20.0,11.0,-100.00,ESE,112,2.0,11.0,68,0.00,,,0.04,12.000000,,2013-01-16 15:33:00,
2013-01-16 08:43:00,20.0,11.0,-100.00,ESE,112,2.0,11.0,68,0.00,,,0.04,12.000000,,2013-01-16 15:43:00,
2013-01-16 08:52:00,20.0,11.0,-100.00,ESE,112,2.0,11.0,68,0.00,,,0.04,12.000000,,2013-01-16 15:52:00,
2013-01-16 09:22:00,30.0,13.0,-100.00,North,352,2.0,4.0,49,0.00,,,0.04,139.000000,,2013-01-16 16:22:00,
2013-01-16 09:33:00,30.0,13.0,-100.00,North,352,2.0,4.0,49,0.00,,,0.04,139.000000,,2013-01-16 16:33:00,
2013-01-16 09:42:00,30.0,13.0,-100.00,North,352,2.0,4.0,49,0.00,,,0.04,139.000000,,2013-01-16 16:42:00,
2013-01-16 09:52:00,30.0,13.0,-100.00,North,352,2.0,4.0,49,0.00,,,0.04,139.000000,,2013-01-16 16:52:00,
2013-01-16 10:23:00,36.0,14.0,-100.00,NNE,28,3.0,6.0,40,0.01,,,0.05,246.000000,,2013-01-16 17:23:00,
2013-01-16 10:33:00,36.0,14.0,-100.00,NNE,28,3.0,6.0,40,0.01,,,0.05,246.000000,,2013-01-16 17:33:00,
2013-01-16 10:43:00,36.0,14.0,-100.00,NNE,28,3.0,6.0,40,0.01,,,0.05,246.000000,,2013-01-16 17:43:00,
2013-01-16 10:53:00,36.0,14.0,-100.00,NNE,28,3.0,6.0,40,0.01,,,0.05,246.000000,,2013-01-16 17:53:00,
2013-01-16 11:13:00,40.0,14.0,-100.00,NE,36,3.0,10.0,34,0.02,,,0.07,425.000000,,2013-01-16 18:13:00,
2013-01-16 11:23:00,40.0,14.0,-100.00,NE,36,3.0,10.0,34,0.02,,,0.07,425.000000,,2013-01-16 18:23:00,
2013-01-16 11:33:00,40.0,14.0,-100.00,NE,36,3.0,10.0,34,0.02,,,0.07,425.000000,,2013-01-16 18:33:00,
2013-01-16 11:42:00,40.0,14.0,-100.00,NE,36,3.0,10.0,34,0.02,,,0.07,425.000000,,2013-01-16 18:42:00,
2013-01-16 11:53:00,40.0,14.0,-100.00,NE,36,3.0,10.0,34,0.02,,,0.07,425.000000,,2013-01-16 18:53:00,
2013-01-16 12:12:00,37.0,16.0,-100.00,South,180,5.0,9.0,41,0.00,,,0.07,503.000000,,2013-01-16 19:12:00,
2013-01-16 12:23:00,37.0,16.0,-100.00,South,180,5.0,9.0,41,0.00,,,0.07,503.000000,,2013-01-16 19:23:00,
2013-01-16 12:33:00,37.0,16.0,-100.00,South,180,5.0,9.0,41,0.00,,,0.07,503.000000,,2013-01-16 19:33:00,
2013-01-16 12:43:00,37.0,16.0,-100.00,South,180,5.0,9.0,41,0.00,,,0.07,503.000000,,2013-01-16 19:43:00,
2013-01-16 12:52:00,37.0,16.0,-100.00,South,180,5.0,9.0,41,0.00,,,0.07,503.000000,,2013-01-16 19:52:00,
2013-01-16 13:12:00,41.0,15.0,-100.00,West,278,4.0,10.0,34,0.00,,,0.06,520.000000,,2013-01-16 20:12:00,
2013-01-16 13:23:00,41.0,15.0,-100.00,West,278,4.0,10.0,34,0.00,,,0.06,520.000000,,2013-01-16 20:23:00,
2013-01-16 13:33:00,41.0,15.0,-100.00,West,278,4.0,10.0,34,0.00,,,0.06,520.000000,,2013-01-16 20:33:00,
2013-01-16 13:42:00,41.0,15.0,-100.00,West,278,4.0,10.0,34,0.00,,,0.06,520.000000,,2013-01-16 20:42:00,
2013-01-16 13:53:00,41.0,15.0,-100.00,West,278,4.0,10.0,34,0.00,,,0.06,520.000000,,2013-01-16 20:53:00,
2013-01-16 14:22:00,40.0,14.0,-100.00,North,350,4.0,12.0,34,0.00,,,0.03,471.000000,,2013-01-16 21:22:00,
2013-01-16 14:33:00,40.0,14.0,-100.00,North,350,4.0,12.0,34,0.00,,,0.03,471.000000,,2013-01-16 21:33:00,
2013-01-16 14:43:00,40.0,14.0,-100.00,North,350,4.0,12.0,34,0.00,,,0.03,471.000000,,2013-01-16 21:43:00,
2013-01-16 14:52:00,40.0,14.0,-100.00,North,350,4.0,12.0,34,0.00,,,0.03,471.000000,,2013-01-16 21:52:00,
2013-01-16 15:23:00,41.0,15.0,-100.00,NW,311,4.0,12.0,34,0.00,,,0.03,400.000000,,2013-01-16 22:23:00,
2013-01-16 15:33:00,41.0,15.0,-100.00,NW,311,4.0,12.0,34,0.00,,,0.03,400.000000,,2013-01-16 22:33:00,
2013-01-16 15:43:00,41.0,15.0,-100.00,NW,311,4.0,12.0,34,0.00,,,0.03,400.000000,,2013-01-16 22:43:00,
2013-01-16 15:52:00,41.0,15.0,-100.00,NW,311,4.0,12.0,34,0.00,,,0.03,400.000000,,2013-01-16 22:52:00,
2013-01-16 16:23:00,36.0,13.0,-100.00,East,84,4.0,10.0,38,0.00,,,0.03,259.000000,,2013-01-16 23:23:00,
2013-01-16 16:32:00,36.0,13.0,-100.00,East,84,4.0,10.0,38,0.00,,,0.03,259.000000,,2013-01-16 23:32:00,
2013-01-16 16:42:00,36.0,13.0,-100.00,East,84,4.0,10.0,38,0.00,,,0.03,259.000000,,2013-01-16 23:42:00,
2013-01-16 16:52:00,36.0,13.0,-100.00,East,84,4.0,10.0,38,0.00,,,0.03,259.000000,,2013-01-16 23:52:00,
2013-01-16 17:22:00,31.0,13.0,-100.00,North,0,3.0,10.0,46,0.00,,,0.03,91.000000,,2013-01-17 00:22:00,
2013-01-16 17:32:00,31.0,13.0,-100.00,North,0,3.0,10.0,46,0.00,,,0.03,91.000000,,2013-01-17 00:32:00,
2013-01-16 17:42:00,31.0,13.0,-100.00,North,0,3.0,10.0,46,0.00,,,0.03,91.000000,,2013-01-17 00:42:00,
2013-01-16 17:52:00,31.0,13.0,-100.00,North,0,3.0,10.0,46,0.00,,,0.03,91.000000,,2013-01-17 00:52:00,
2013-01-16 18:22:00,22.0,10.0,-100.00,ENE,67,1.0,6.0,60,0.00,,,0.03,2.000000,,2013-01-17 01:22:00,
2013-01-16 18:33:00,22.0,10.0,-100.00,ENE,67,1.0,6.0,60,0.00,,,0.03,2.000000,,2013-01-17 01:33:00,
2013-01-16 18:42:00,22.0,10.0,-100.00,ENE,67,1.0,6.0,60,0.00,,,0.03,2.000000,,2013-01-17 01:42:00,
2013-01-16 18:52:00,22.0,10.0,-100.00,ENE,67,1.0,6.0,60,0.00,,,0.03,2.000000,,2013-01-17 01:52:00,
2013-01-16 19:12:00,20.0,10.0,-100.00,NNE,28,2.0,3.0,65,0.00,,,0.03,0.000000,,2013-01-17 02:12:00,
2013-01-16 19:22:00,20.0,10.0,-100.00,NNE,28,2.0,3.0,65,0.00,,,0.03,0.000000,,2013-01-17 02:22:00,
2013-01-16 19:32:00,20.0,10.0,-100.00,NNE,28,2.0,3.0,65,0.00,,,0.03,0.000000,,2013-01-17 02:32:00,
2013-01-16 19:42:00,20.0,10.0,-100.00,NNE,28,2.0,3.0,65,0.00,,,0.03,0.000000,,2013-01-17 02:42:00,
2013-01-16 19:52:00,20.0,10.0,-100.00,NNE,28,2.0,3.0,65,0.00,,,0.03,0.000000,,2013-01-17 02:52:00,
2013-01-16 20:12:00,21.0,10.0,-100.00,North,3,2.0,3.0,63,0.00,,,0.03,0.000000,,2013-01-17 03:12:00,
2013-01-16 20:22:00,21.0,10.0,-100.00,North,3,2.0,3.0,63,0.00,,,0.03,0.000000,,2013-01-17 03:22:00,
2013-01-16 20:32:00,21.0,10.0,-100.00,North,3,2.0,3.0,63,0.00,,,0.03,0.000000,,2013-01-17 03:32:00,
2013-01-16 20:42:00,21.0,10.0,-100.00,North,3,2.0,3.0,63,0.00,,,0.03,0.000000,,2013-01-17 03:42:00,
2013-01-16 20:52:00,21.0,10.0,-100.00,North,3,2.0,3.0,63,0.00,,,0.03,0.000000,,2013-01-17 03:52:00,
2013-01-16 21:12:00,22.0,11.0,-100.00,SSE,158,2.0,4.0,62,0.00,,,0.03,0.000000,,2013-01-17 04:12:00,
2013-01-16 21:22:00,22.0,11.0,-100.00,SSE,158,2.0,4.0,62,0.00,,,0.03,0.000000,,2013-01-17 04:22:00,
2013-01-16 21:32:00,22.0,11.0,-100.00,SSE,158,2.0,4.0,62,0.00,,,0.03,0.000000,,2013-01-17 04:32:00,
2013-01-16 21:42:00,22.0,11.0,-100.00,SSE,158,2.0,4.0,62,0.00,,,0.03,0.000000,,2013-01-17 04:42:00,
2013-01-16 21:52:00,22.0,11.0,-100.00,SSE,158,2.0,4.0,62,0.00,,,0.03,0.000000,,2013-01-17 04:52:00,
2013-01-16 22:22:00,19.0,10.0,-100.00,NNE,20,3.0,4.0,66,0.00,,,0.03,0.000000,,2013-01-17 05:22:00,
2013-01-16 22:33:00,19.0,10.0,-100.00,NNE,20,3.0,4.0,66,0.00,,,0.03,0.000000,,2013-01-17 05:33:00,
2013-01-16 22:42:00,19.0,10.0,-100.00,NNE,20,3.0,4.0,66,0.00,,,0.03,0.000000,,2013-01-17 05:42:00,
2013-01-16 22:52:00,19.0,10.0,-100.00,NNE,20,3.0,4.0,66,0.00,,,0.03,0.000000,,2013-01-17 05:52:00,
2013-01-16 23:12:00,20.0,10.0,-100.00,South,178,4.0,5.0,65,0.00,,,0.03,0.000000,,2013-01-17 06:12:00,
2013-01-16 23:22:00,20.0,10.0,-100.00,South,178,4.0,5.0,65,0.00,,,0.03,0.000000,,2013-01-17 06:22:00,
2013-01-16 23:32:00,20.0,10.0,-100.00,South,178,4.0,5.0,65,0.00,,,0.03,0.000000,,2013-01-17 06:32:00,
2013-01-16 23:42:00,20.0,10.0,-100.00,South,178,4.0,5.0,65,0.00,,,0.03,0.000000,,2013-01-17 06:42:00,
2013-01-16 23:52:00,20.0,10.0,-100.00,South,178,4.0,5.0,65,0.00,,,0.03,0.000000,,2013-01-17 06:52:00,